sensor_id;sensor_type;location;lat;lon;timestamp;pressure;altitude;pressure_sealevel;temperature;humidity
66560;BME280;53413;49.878;8.142;2024-03-08T00:02:03;100019.97;;;4.66;86.28
66560;BME280;53413;49.878;8.142;2024-03-08T00:04:28;100019.28;;;4.53;86.56
66560;BME280;53413;49.878;8.142;2024-03-08T00:06:54;100015.16;;;4.36;87.32
66560;BME280;53413;49.878;8.142;2024-03-08T00:09:19;100020.53;;;4.22;88.37
66560;BME280;53413;49.878;8.142;2024-03-08T00:11:46;100013.78;;;4.06;89.35
66560;BME280;53413;49.878;8.142;2024-03-08T00:14:12;100013.06;;;3.94;89.97
66560;BME280;53413;49.878;8.142;2024-03-08T00:16:37;100009.78;;;3.78;91.12
66560;BME280;53413;49.878;8.142;2024-03-08T00:19:02;100010.69;;;3.73;90.86
66560;BME280;53413;49.878;8.142;2024-03-08T00:21:27;100004.75;;;3.61;92.32
66560;BME280;53413;49.878;8.142;2024-03-08T00:23:53;100003.94;;;3.54;92.09
66560;BME280;53413;49.878;8.142;2024-03-08T00:26:20;100009.19;;;3.47;92.91
66560;BME280;53413;49.878;8.142;2024-03-08T00:28:47;100004.13;;;3.34;93.68
66560;BME280;53413;49.878;8.142;2024-03-08T00:31:13;100008.53;;;3.23;94.30
66560;BME280;53413;49.878;8.142;2024-03-08T00:33:39;100004.28;;;3.14;94.15
66560;BME280;53413;49.878;8.142;2024-03-08T00:36:04;100002.66;;;3.05;94.80
66560;BME280;53413;49.878;8.142;2024-03-08T00:38:30;99997.50;;;2.99;95.94
66560;BME280;53413;49.878;8.142;2024-03-08T00:40:56;99997.53;;;2.96;95.86
66560;BME280;53413;49.878;8.142;2024-03-08T00:43:22;99987.19;;;2.91;96.19
66560;BME280;53413;49.878;8.142;2024-03-08T00:45:47;99989.81;;;2.87;96.73
66560;BME280;53413;49.878;8.142;2024-03-08T00:48:12;99987.31;;;2.77;97.34
66560;BME280;53413;49.878;8.142;2024-03-08T00:50:38;99989.06;;;2.71;97.76
66560;BME280;53413;49.878;8.142;2024-03-08T00:53:03;99986.53;;;2.63;98.97
66560;BME280;53413;49.878;8.142;2024-03-08T00:55:29;99979.66;;;2.59;99.48
66560;BME280;53413;49.878;8.142;2024-03-08T00:57:55;99980.56;;;2.55;100.00
66560;BME280;53413;49.878;8.142;2024-03-08T01:00:20;99972.00;;;2.46;100.00
66560;BME280;53413;49.878;8.142;2024-03-08T01:02:46;99974.56;;;2.42;100.00
66560;BME280;53413;49.878;8.142;2024-03-08T01:05:12;99975.47;;;2.36;100.00
66560;BME280;53413;49.878;8.142;2024-03-08T01:07:37;99966.88;;;2.31;100.00
66560;BME280;53413;49.878;8.142;2024-03-08T01:10:03;99972.09;;;2.23;100.00
66560;BME280;53413;49.878;8.142;2024-03-08T01:12:29;99965.22;;;2.18;100.00
66560;BME280;53413;49.878;8.142;2024-03-08T01:14:55;99960.94;;;2.13;100.00
66560;BME280;53413;49.878;8.142;2024-03-08T01:17:20;99961.84;;;2.06;100.00
66560;BME280;53413;49.878;8.142;2024-03-08T01:19:45;99955.81;;;2.01;100.00
66560;BME280;53413;49.878;8.142;2024-03-08T01:22:11;99968.78;;;1.92;100.00
66560;BME280;53413;49.878;8.142;2024-03-08T01:24:36;99966.22;;;1.86;100.00
66560;BME280;53413;49.878;8.142;2024-03-08T01:27:02;99960.19;;;1.80;100.00
66560;BME280;53413;49.878;8.142;2024-03-08T01:29:28;99957.63;;;1.76;100.00
66560;BME280;53413;49.878;8.142;2024-03-08T01:31:55;99955.91;;;1.78;100.00
66560;BME280;53413;49.878;8.142;2024-03-08T01:34:21;99954.16;;;1.75;100.00
66560;BME280;53413;49.878;8.142;2024-03-08T01:36:47;99949.91;;;1.68;100.00
66560;BME280;53413;49.878;8.142;2024-03-08T01:39:13;99946.47;;;1.66;100.00
66560;BME280;53413;49.878;8.142;2024-03-08T01:41:38;99935.28;;;1.61;100.00
66560;BME280;53413;49.878;8.142;2024-03-08T01:44:05;99941.31;;;1.57;100.00
66560;BME280;53413;49.878;8.142;2024-03-08T01:46:33;99942.19;;;1.48;100.00
66560;BME280;53413;49.878;8.142;2024-03-08T01:48:58;99936.22;;;1.38;100.00
66560;BME280;53413;49.878;8.142;2024-03-08T01:51:26;99927.63;;;1.28;100.00
66560;BME280;53413;49.878;8.142;2024-03-08T01:53:55;99926.75;;;1.25;100.00
66560;BME280;53413;49.878;8.142;2024-03-08T01:56:21;99923.31;;;1.21;100.00
66560;BME280;53413;49.878;8.142;2024-03-08T01:58:46;99918.16;;;1.18;100.00
66560;BME280;53413;49.878;8.142;2024-03-08T02:01:12;99918.16;;;1.10;100.00
66560;BME280;53413;49.878;8.142;2024-03-08T02:03:41;99913.88;;;1.09;100.00
66560;BME280;53413;49.878;8.142;2024-03-08T02:06:09;99911.31;;;1.07;100.00
66560;BME280;53413;49.878;8.142;2024-03-08T02:08:36;99910.44;;;1.05;100.00
66560;BME280;53413;49.878;8.142;2024-03-08T02:11:01;99912.16;;;1.08;100.00
66560;BME280;53413;49.878;8.142;2024-03-08T02:13:27;99907.84;;;1.10;100.00
66560;BME280;53413;49.878;8.142;2024-03-08T02:15:55;99916.44;;;1.14;100.00
66560;BME280;53413;49.878;8.142;2024-03-08T02:18:22;99913.00;;;1.12;100.00
66560;BME280;53413;49.878;8.142;2024-03-08T02:21:05;99912.16;;;1.11;100.00
66560;BME280;53413;49.878;8.142;2024-03-08T02:23:32;99911.28;;;1.04;100.00
66560;BME280;53413;49.878;8.142;2024-03-08T02:25:58;99906.97;;;1.05;100.00
66560;BME280;53413;49.878;8.142;2024-03-08T02:28:24;99898.38;;;1.03;100.00
66560;BME280;53413;49.878;8.142;2024-03-08T02:30:50;99890.63;;;1.03;100.00
66560;BME280;53413;49.878;8.142;2024-03-08T02:33:17;99892.38;;;0.99;100.00
66560;BME280;53413;49.878;8.142;2024-03-08T02:35:46;99888.06;;;1.00;100.00
66560;BME280;53413;49.878;8.142;2024-03-08T02:38:16;99888.91;;;0.97;100.00
66560;BME280;53413;49.878;8.142;2024-03-08T02:40:43;99890.66;;;0.98;100.00
66560;BME280;53413;49.878;8.142;2024-03-08T02:43:09;99881.22;;;0.89;100.00
66560;BME280;53413;49.878;8.142;2024-03-08T02:45:34;99880.34;;;0.86;100.00
66560;BME280;53413;49.878;8.142;2024-03-08T02:48:00;99882.91;;;0.81;100.00
66560;BME280;53413;49.878;8.142;2024-03-08T02:50:25;99882.91;;;0.81;100.00
66560;BME280;53413;49.878;8.142;2024-03-08T02:52:51;99877.75;;;0.84;100.00
66560;BME280;53413;49.878;8.142;2024-03-08T02:55:16;99879.47;;;0.82;100.00
66560;BME280;53413;49.878;8.142;2024-03-08T02:57:42;99871.75;;;0.74;100.00
66560;BME280;53413;49.878;8.142;2024-03-08T03:00:09;99878.63;;;0.68;100.00
66560;BME280;53413;49.878;8.142;2024-03-08T03:02:34;99876.03;;;0.58;100.00
66560;BME280;53413;49.878;8.142;2024-03-08T03:05:00;99878.63;;;0.52;100.00
66560;BME280;53413;49.878;8.142;2024-03-08T03:07:30;99872.59;;;0.47;100.00
66560;BME280;53413;49.878;8.142;2024-03-08T03:09:56;99878.63;;;0.44;100.00
66560;BME280;53413;49.878;8.142;2024-03-08T03:12:21;99877.75;;;0.38;100.00
66560;BME280;53413;49.878;8.142;2024-03-08T03:14:46;99878.59;;;0.37;100.00
66560;BME280;53413;49.878;8.142;2024-03-08T03:17:12;99879.47;;;0.36;100.00
66560;BME280;53413;49.878;8.142;2024-03-08T03:19:40;99875.16;;;0.35;100.00
66560;BME280;53413;49.878;8.142;2024-03-08T03:22:07;99875.16;;;0.30;100.00
66560;BME280;53413;49.878;8.142;2024-03-08T03:24:34;99870.00;;;0.22;100.00
66560;BME280;53413;49.878;8.142;2024-03-08T03:27:06;99873.41;;;0.21;100.00
66560;BME280;53413;49.878;8.142;2024-03-08T03:29:37;99876.84;;;0.19;100.00
66560;BME280;53413;49.878;8.142;2024-03-08T03:32:02;99875.97;;;0.12;100.00
66560;BME280;53413;49.878;8.142;2024-03-08T03:34:29;99874.25;;;0.06;100.00
66560;BME280;53413;49.878;8.142;2024-03-08T03:36:54;99863.09;;;0.07;100.00
66560;BME280;53413;49.878;8.142;2024-03-08T03:39:21;99859.66;;;0.05;100.00
66560;BME280;53413;49.878;8.142;2024-03-08T03:41:48;99866.53;;;0.09;100.00
66560;BME280;53413;49.878;8.142;2024-03-08T03:44:17;99861.38;;;0.05;100.00
66560;BME280;53413;49.878;8.142;2024-03-08T03:46:43;99872.53;;;-0.01;100.00
66560;BME280;53413;49.878;8.142;2024-03-08T03:49:11;99858.78;;;-0.02;100.00
66560;BME280;53413;49.878;8.142;2024-03-08T03:51:37;99867.34;;;-0.03;100.00
66560;BME280;53413;49.878;8.142;2024-03-08T03:54:03;99851.91;;;0.07;100.00
66560;BME280;53413;49.878;8.142;2024-03-08T03:56:29;99860.50;;;0.03;100.00
66560;BME280;53413;49.878;8.142;2024-03-08T03:58:54;99852.78;;;0.04;100.00
66560;BME280;53413;49.878;8.142;2024-03-08T04:01:19;99851.91;;;0.07;100.00
66560;BME280;53413;49.878;8.142;2024-03-08T04:03:45;99855.34;;;-0.04;100.00
66560;BME280;53413;49.878;8.142;2024-03-08T04:06:10;99853.63;;;-0.08;100.00
66560;BME280;53413;49.878;8.142;2024-03-08T04:08:35;99849.31;;;-0.07;100.00
66560;BME280;53413;49.878;8.142;2024-03-08T04:11:01;99856.19;;;-0.08;100.00
66560;BME280;53413;49.878;8.142;2024-03-08T04:13:27;99852.72;;;-0.11;100.00
66560;BME280;53413;49.878;8.142;2024-03-08T04:15:52;99853.59;;;-0.14;100.00
66560;BME280;53413;49.878;8.142;2024-03-08T04:18:18;99856.16;;;-0.20;100.00
66560;BME280;53413;49.878;8.142;2024-03-08T04:20:44;99851.00;;;-0.23;100.00
66560;BME280;53413;49.878;8.142;2024-03-08T04:23:10;99857.88;;;-0.22;100.00
66560;BME280;53413;49.878;8.142;2024-03-08T04:25:35;99853.59;;;-0.16;100.00
66560;BME280;53413;49.878;8.142;2024-03-08T04:28:01;99852.75;;;-0.10;100.00
66560;BME280;53413;49.878;8.142;2024-03-08T04:30:26;99843.31;;;-0.11;100.00
66560;BME280;53413;49.878;8.142;2024-03-08T04:32:53;99843.28;;;-0.09;100.00
66560;BME280;53413;49.878;8.142;2024-03-08T04:35:19;99836.44;;;-0.07;100.00
66560;BME280;53413;49.878;8.142;2024-03-08T04:37:45;99839.00;;;-0.10;100.00
66560;BME280;53413;49.878;8.142;2024-03-08T04:40:11;99840.69;;;-0.19;100.00
66560;BME280;53413;49.878;8.142;2024-03-08T04:42:37;99836.38;;;-0.23;100.00
66560;BME280;53413;49.878;8.142;2024-03-08T04:45:03;99837.25;;;-0.21;100.00
66560;BME280;53413;49.878;8.142;2024-03-08T04:47:29;99837.25;;;-0.24;100.00
66560;BME280;53413;49.878;8.142;2024-03-08T04:49:54;99826.06;;;-0.27;100.00
66560;BME280;53413;49.878;8.142;2024-03-08T04:52:21;99833.81;;;-0.30;100.00
66560;BME280;53413;49.878;8.142;2024-03-08T04:54:47;99831.22;;;-0.34;100.00
66560;BME280;53413;49.878;8.142;2024-03-08T04:57:12;99826.06;;;-0.34;100.00
66560;BME280;53413;49.878;8.142;2024-03-08T04:59:38;99827.75;;;-0.39;100.00
66560;BME280;53413;49.878;8.142;2024-03-08T05:02:03;99823.47;;;-0.43;100.00
66560;BME280;53413;49.878;8.142;2024-03-08T05:04:29;99822.59;;;-0.45;100.00
66560;BME280;53413;49.878;8.142;2024-03-08T05:06:54;99822.59;;;-0.48;100.00
66560;BME280;53413;49.878;8.142;2024-03-08T05:09:20;99826.00;;;-0.49;100.00
66560;BME280;53413;49.878;8.142;2024-03-08T05:11:46;99822.59;;;-0.50;100.00
66560;BME280;53413;49.878;8.142;2024-03-08T05:14:15;99818.28;;;-0.54;100.00
66560;BME280;53413;49.878;8.142;2024-03-08T05:16:48;99822.53;;;-0.59;100.00
66560;BME280;53413;49.878;8.142;2024-03-08T05:19:16;99832.84;;;-0.57;100.00
66560;BME280;53413;49.878;8.142;2024-03-08T05:21:45;99824.22;;;-0.67;100.00
66560;BME280;53413;49.878;8.142;2024-03-08T05:24:11;99819.06;;;-0.69;100.00
66560;BME280;53413;49.878;8.142;2024-03-08T05:26:36;99819.91;;;-0.71;100.00
66560;BME280;53413;49.878;8.142;2024-03-08T05:29:05;99815.59;;;-0.74;100.00
66560;BME280;53413;49.878;8.142;2024-03-08T05:31:38;99814.75;;;-0.74;100.00
66560;BME280;53413;49.878;8.142;2024-03-08T05:34:07;99819.88;;;-0.81;100.00
66560;BME280;53413;49.878;8.142;2024-03-08T05:36:35;99819.88;;;-0.76;100.00
66560;BME280;53413;49.878;8.142;2024-03-08T05:39:01;99817.34;;;-0.70;100.00
66560;BME280;53413;49.878;8.142;2024-03-08T05:41:26;99814.78;;;-0.64;100.00
66560;BME280;53413;49.878;8.142;2024-03-08T05:43:51;99817.38;;;-0.64;100.00
66560;BME280;53413;49.878;8.142;2024-03-08T05:46:17;99817.41;;;-0.57;100.00
66560;BME280;53413;49.878;8.142;2024-03-08T05:48:43;99812.25;;;-0.57;100.00
66560;BME280;53413;49.878;8.142;2024-03-08T05:51:09;99812.22;;;-0.59;100.00
66560;BME280;53413;49.878;8.142;2024-03-08T05:53:34;99803.69;;;-0.53;100.00
66560;BME280;53413;49.878;8.142;2024-03-08T05:55:59;99801.13;;;-0.47;100.00
66560;BME280;53413;49.878;8.142;2024-03-08T05:58:27;99804.56;;;-0.47;100.00
66560;BME280;53413;49.878;8.142;2024-03-08T06:00:55;99802.84;;;-0.46;100.00
66560;BME280;53413;49.878;8.142;2024-03-08T06:03:21;99798.56;;;-0.47;100.00
66560;BME280;53413;49.878;8.142;2024-03-08T06:05:50;99803.72;;;-0.47;100.00
66560;BME280;53413;49.878;8.142;2024-03-08T06:08:15;99794.28;;;-0.40;100.00
66560;BME280;53413;49.878;8.142;2024-03-08T06:10:41;99801.16;;;-0.38;100.00
66560;BME280;53413;49.878;8.142;2024-03-08T06:13:06;99796.91;;;-0.33;100.00
66560;BME280;53413;49.878;8.142;2024-03-08T06:15:32;99804.63;;;-0.23;100.00
66560;BME280;53413;49.878;8.142;2024-03-08T06:17:57;99798.66;;;-0.13;100.00
66560;BME280;53413;49.878;8.142;2024-03-08T06:20:23;99798.69;;;-0.07;100.00
66560;BME280;53413;49.878;8.142;2024-03-08T06:22:51;99800.41;;;0.04;100.00
66560;BME280;53413;49.878;8.142;2024-03-08T06:25:17;99797.84;;;0.13;100.00
66560;BME280;53413;49.878;8.142;2024-03-08T06:27:42;99788.38;;;0.20;100.00
66560;BME280;53413;49.878;8.142;2024-03-08T06:30:09;99795.25;;;0.27;100.00
66560;BME280;53413;49.878;8.142;2024-03-08T06:32:35;99789.25;;;0.34;100.00
66560;BME280;53413;49.878;8.142;2024-03-08T06:35:04;99787.53;;;0.42;100.00
66560;BME280;53413;49.878;8.142;2024-03-08T06:37:32;99790.13;;;0.53;100.00
66560;BME280;53413;49.878;8.142;2024-03-08T06:39:57;99787.53;;;0.63;100.00
66560;BME280;53413;49.878;8.142;2024-03-08T06:42:23;99790.06;;;0.73;100.00
66560;BME280;53413;49.878;8.142;2024-03-08T06:44:48;99789.19;;;0.82;100.00
66560;BME280;53413;49.878;8.142;2024-03-08T06:47:17;99779.72;;;0.92;100.00
66560;BME280;53413;49.878;8.142;2024-03-08T06:49:43;99783.13;;;1.05;100.00
66560;BME280;53413;49.878;8.142;2024-03-08T06:52:11;99786.53;;;1.16;100.00
66560;BME280;53413;49.878;8.142;2024-03-08T06:54:37;99789.06;;;1.30;100.00
66560;BME280;53413;49.878;8.142;2024-03-08T06:57:05;99789.03;;;1.43;100.00
66560;BME280;53413;49.878;8.142;2024-03-08T06:59:31;99779.47;;;1.52;100.00
66560;BME280;53413;49.878;8.142;2024-03-08T07:01:56;99778.56;;;1.64;100.00
66560;BME280;53413;49.878;8.142;2024-03-08T07:04:22;99783.72;;;1.72;100.00
66560;BME280;53413;49.878;8.142;2024-03-08T07:06:51;99794.78;;;1.87;100.00
66560;BME280;53413;49.878;8.142;2024-03-08T07:09:17;99791.31;;;1.97;100.00
66560;BME280;53413;49.878;8.142;2024-03-08T07:11:42;99788.66;;;2.09;100.00
66560;BME280;53413;49.878;8.142;2024-03-08T07:14:08;99790.16;;;2.34;100.00
66560;BME280;53413;49.878;8.142;2024-03-08T07:16:34;99787.28;;;2.68;100.00
66560;BME280;53413;49.878;8.142;2024-03-08T07:19:01;99782.63;;;3.01;100.00
66560;BME280;53413;49.878;8.142;2024-03-08T07:21:26;99779.59;;;3.38;100.00
66560;BME280;53413;49.878;8.142;2024-03-08T07:23:51;99782.22;;;6.61;100.00
66560;BME280;53413;49.878;8.142;2024-03-08T07:26:25;99772.81;;;9.84;84.91
66560;BME280;53413;49.878;8.142;2024-03-08T07:28:51;99764.13;;;11.87;69.84
66560;BME280;53413;49.878;8.142;2024-03-08T07:31:17;99752.94;;;13.58;62.13
66560;BME280;53413;49.878;8.142;2024-03-08T07:33:52;99746.38;;;15.32;54.07
66560;BME280;53413;49.878;8.142;2024-03-08T07:36:18;99747.16;;;15.76;50.52
66560;BME280;53413;49.878;8.142;2024-03-08T07:38:44;99742.66;;;15.63;49.48
66560;BME280;53413;49.878;8.142;2024-03-08T07:41:12;99744.91;;;16.11;47.51
66560;BME280;53413;49.878;8.142;2024-03-08T07:43:38;99754.38;;;16.54;46.69
66560;BME280;53413;49.878;8.142;2024-03-08T07:46:03;99742.19;;;17.18;45.12
66560;BME280;53413;49.878;8.142;2024-03-08T07:48:28;99738.56;;;17.06;44.72
66560;BME280;53413;49.878;8.142;2024-03-08T07:50:55;99738.56;;;17.69;43.62
66560;BME280;53413;49.878;8.142;2024-03-08T07:53:21;99730.06;;;17.77;43.04
66560;BME280;53413;49.878;8.142;2024-03-08T07:55:47;99724.56;;;18.40;42.23
66560;BME280;53413;49.878;8.142;2024-03-08T07:58:12;99725.28;;;19.12;40.59
66560;BME280;53413;49.878;8.142;2024-03-08T08:00:38;99724.16;;;18.91;40.34
66560;BME280;53413;49.878;8.142;2024-03-08T08:03:04;99724.34;;;19.13;40.18
66560;BME280;53413;49.878;8.142;2024-03-08T08:05:30;99720.53;;;18.81;40.01
66560;BME280;53413;49.878;8.142;2024-03-08T08:08:01;99716.22;;;19.03;39.73
66560;BME280;53413;49.878;8.142;2024-03-08T08:10:28;99704.25;;;19.54;38.61
66560;BME280;53413;49.878;8.142;2024-03-08T08:12:54;99712.97;;;19.11;38.91
66560;BME280;53413;49.878;8.142;2024-03-08T08:15:19;99703.63;;;19.50;38.68
66560;BME280;53413;49.878;8.142;2024-03-08T08:17:45;99706.69;;;19.34;38.46
66560;BME280;53413;49.878;8.142;2024-03-08T08:20:12;99712.59;;;19.38;38.38
66560;BME280;53413;49.878;8.142;2024-03-08T08:22:41;99697.63;;;19.92;37.67
66560;BME280;53413;49.878;8.142;2024-03-08T08:25:08;99702.13;;;19.25;37.91
66560;BME280;53413;49.878;8.142;2024-03-08T08:27:34;99697.13;;;19.54;38.21
66560;BME280;53413;49.878;8.142;2024-03-08T08:30:02;99693.72;;;20.29;37.00
66560;BME280;53413;49.878;8.142;2024-03-08T08:32:29;99689.72;;;20.66;36.74
66560;BME280;53413;49.878;8.142;2024-03-08T08:34:55;99686.06;;;21.09;35.82
66560;BME280;53413;49.878;8.142;2024-03-08T08:37:21;99685.75;;;21.12;36.05
66560;BME280;53413;49.878;8.142;2024-03-08T08:39:46;99680.53;;;21.51;35.52
66560;BME280;53413;49.878;8.142;2024-03-08T08:42:11;99683.16;;;22.12;35.14
66560;BME280;53413;49.878;8.142;2024-03-08T08:44:38;99683.22;;;22.40;34.25
66560;BME280;53413;49.878;8.142;2024-03-08T08:47:03;99674.59;;;22.75;33.74
66560;BME280;53413;49.878;8.142;2024-03-08T08:49:29;99674.22;;;22.98;33.52
66560;BME280;53413;49.878;8.142;2024-03-08T08:51:55;99677.28;;;23.03;33.36
66560;BME280;53413;49.878;8.142;2024-03-08T08:54:23;99669.81;;;23.63;32.66
66560;BME280;53413;49.878;8.142;2024-03-08T08:56:50;99666.75;;;23.76;31.94
66560;BME280;53413;49.878;8.142;2024-03-08T08:59:16;99660.84;;;23.08;32.80
66560;BME280;53413;49.878;8.142;2024-03-08T09:01:45;99665.81;;;22.45;32.80
66560;BME280;53413;49.878;8.142;2024-03-08T09:04:12;99658.13;;;21.83;33.93
66560;BME280;53413;49.878;8.142;2024-03-08T09:06:37;99652.34;;;22.27;33.52
66560;BME280;53413;49.878;8.142;2024-03-08T09:09:03;99647.75;;;22.10;33.56
66560;BME280;53413;49.878;8.142;2024-03-08T09:11:30;99639.34;;;21.95;33.23
66560;BME280;53413;49.878;8.142;2024-03-08T09:13:55;99642.13;;;21.83;33.44
66560;BME280;53413;49.878;8.142;2024-03-08T09:16:20;99642.25;;;22.11;33.85
66560;BME280;53413;49.878;8.142;2024-03-08T09:18:46;99632.44;;;22.69;33.18
66560;BME280;53413;49.878;8.142;2024-03-08T09:21:13;99634.03;;;22.62;33.06
66560;BME280;53413;49.878;8.142;2024-03-08T09:23:39;99622.66;;;22.50;33.29
66560;BME280;53413;49.878;8.142;2024-03-08T09:26:05;99614.84;;;23.04;33.05
66560;BME280;53413;49.878;8.142;2024-03-08T09:28:34;99613.78;;;23.25;32.47
66560;BME280;53413;49.878;8.142;2024-03-08T09:31:00;99606.22;;;23.20;32.28
66560;BME280;53413;49.878;8.142;2024-03-08T09:33:26;99604.66;;;21.95;33.00
66560;BME280;53413;49.878;8.142;2024-03-08T09:35:54;99600.19;;;20.65;34.36
66560;BME280;53413;49.878;8.142;2024-03-08T09:38:19;99608.50;;;20.40;35.01
66560;BME280;53413;49.878;8.142;2024-03-08T09:40:45;99599.19;;;20.56;34.91
66560;BME280;53413;49.878;8.142;2024-03-08T09:43:11;99591.31;;;20.54;34.90
66560;BME280;53413;49.878;8.142;2024-03-08T09:45:40;99588.13;;;20.29;35.50
66560;BME280;53413;49.878;8.142;2024-03-08T09:48:12;99587.69;;;20.24;35.64
66560;BME280;53413;49.878;8.142;2024-03-08T09:50:41;99581.00;;;20.09;35.57
66560;BME280;53413;49.878;8.142;2024-03-08T09:53:07;99583.44;;;19.79;36.11
66560;BME280;53413;49.878;8.142;2024-03-08T09:55:35;99571.94;;;19.79;36.22
66560;BME280;53413;49.878;8.142;2024-03-08T09:58:05;99568.06;;;19.62;35.89
66560;BME280;53413;49.878;8.142;2024-03-08T10:00:46;99563.66;;;19.51;36.54
66560;BME280;53413;49.878;8.142;2024-03-08T10:03:12;99562.00;;;19.71;36.14
66560;BME280;53413;49.878;8.142;2024-03-08T10:05:40;99564.31;;;19.64;36.83
66560;BME280;53413;49.878;8.142;2024-03-08T10:08:06;99552.97;;;19.62;36.21
66560;BME280;53413;49.878;8.142;2024-03-08T10:10:34;99545.69;;;18.99;36.71
66560;BME280;53413;49.878;8.142;2024-03-08T10:12:59;99550.09;;;18.21;37.93
66560;BME280;53413;49.878;8.142;2024-03-08T10:15:27;99543.47;;;17.91;38.46
66560;BME280;53413;49.878;8.142;2024-03-08T10:17:55;99545.44;;;17.29;40.00
66560;BME280;53413;49.878;8.142;2024-03-08T10:20:21;99541.66;;;15.41;42.22
66560;BME280;53413;49.878;8.142;2024-03-08T10:22:49;99546.91;;;13.54;44.60
66560;BME280;53413;49.878;8.142;2024-03-08T10:25:14;99543.63;;;12.05;46.77
66560;BME280;53413;49.878;8.142;2024-03-08T10:27:40;99551.88;;;11.07;49.21
66560;BME280;53413;49.878;8.142;2024-03-08T10:30:12;99549.50;;;10.65;51.48
66560;BME280;53413;49.878;8.142;2024-03-08T10:32:39;99543.41;;;10.64;52.69
66560;BME280;53413;49.878;8.142;2024-03-08T10:35:09;99542.69;;;10.60;53.18
66560;BME280;53413;49.878;8.142;2024-03-08T10:37:47;99540.00;;;10.43;53.56
66560;BME280;53413;49.878;8.142;2024-03-08T10:40:16;99537.53;;;10.19;53.33
66560;BME280;53413;49.878;8.142;2024-03-08T10:42:53;99529.34;;;10.06;54.25
66560;BME280;53413;49.878;8.142;2024-03-08T10:47:56;99527.59;;;10.07;54.21
66560;BME280;53413;49.878;8.142;2024-03-08T10:50:24;99529.25;;;9.89;54.21
66560;BME280;53413;49.878;8.142;2024-03-08T10:52:51;99524.53;;;9.76;54.74
66560;BME280;53413;49.878;8.142;2024-03-08T10:55:17;99535.53;;;9.64;55.08
66560;BME280;53413;49.878;8.142;2024-03-08T10:57:44;99536.63;;;9.58;55.65
66560;BME280;53413;49.878;8.142;2024-03-08T11:00:10;99537.75;;;9.52;56.02
66560;BME280;53413;49.878;8.142;2024-03-08T11:02:37;99542.56;;;9.41;56.23
66560;BME280;53413;49.878;8.142;2024-03-08T11:05:03;99538.44;;;9.35;56.39
66560;BME280;53413;49.878;8.142;2024-03-08T11:07:33;99540.00;;;9.39;56.76
66560;BME280;53413;49.878;8.142;2024-03-08T11:10:02;99535.63;;;9.40;56.96
66560;BME280;53413;49.878;8.142;2024-03-08T11:12:36;99524.66;;;9.52;56.99
66560;BME280;53413;49.878;8.142;2024-03-08T11:15:09;99515.91;;;9.53;57.09
66560;BME280;53413;49.878;8.142;2024-03-08T11:17:42;99519.72;;;9.67;57.01
66560;BME280;53413;49.878;8.142;2024-03-08T11:20:10;99524.34;;;9.60;57.53
66560;BME280;53413;49.878;8.142;2024-03-08T11:22:41;99518.88;;;9.44;57.77
66560;BME280;53413;49.878;8.142;2024-03-08T11:25:30;99515.31;;;9.47;57.77
66560;BME280;53413;49.878;8.142;2024-03-08T11:28:20;99508.19;;;9.50;58.01
66560;BME280;53413;49.878;8.142;2024-03-08T11:31:22;99502.75;;;9.55;57.65
66560;BME280;53413;49.878;8.142;2024-03-08T11:33:35;99496.47;;;9.59;57.28
66560;BME280;53413;49.878;8.142;2024-03-08T11:38:53;99490.56;;;9.75;57.78
66560;BME280;53413;49.878;8.142;2024-03-08T11:41:22;99481.69;;;9.79;57.39
66560;BME280;53413;49.878;8.142;2024-03-08T11:43:49;99483.06;;;9.88;57.47
66560;BME280;53413;49.878;8.142;2024-03-08T11:46:16;99486.13;;;9.97;58.26
66560;BME280;53413;49.878;8.142;2024-03-08T11:48:43;99476.56;;;9.96;57.98
66560;BME280;53413;49.878;8.142;2024-03-08T11:51:13;99471.25;;;9.98;58.03
66560;BME280;53413;49.878;8.142;2024-03-08T11:53:39;99478.53;;;9.91;57.57
66560;BME280;53413;49.878;8.142;2024-03-08T11:56:13;99473.75;;;9.80;57.39
66560;BME280;53413;49.878;8.142;2024-03-08T11:58:39;99464.28;;;9.78;57.55
66560;BME280;53413;49.878;8.142;2024-03-08T12:01:05;99454.81;;;9.75;57.95
66560;BME280;53413;49.878;8.142;2024-03-08T12:03:32;99448.00;;;9.92;58.04
66560;BME280;53413;49.878;8.142;2024-03-08T12:06:00;99452.47;;;10.09;58.18
66560;BME280;53413;49.878;8.142;2024-03-08T12:08:27;99449.63;;;10.13;57.80
66560;BME280;53413;49.878;8.142;2024-03-08T12:10:55;99445.94;;;10.17;58.04
66560;BME280;53413;49.878;8.142;2024-03-08T12:13:26;99444.06;;;10.21;57.63
66560;BME280;53413;49.878;8.142;2024-03-08T12:15:55;99436.47;;;10.15;56.90
66560;BME280;53413;49.878;8.142;2024-03-08T12:18:20;99433.22;;;10.10;57.35
66560;BME280;53413;49.878;8.142;2024-03-08T12:20:45;99436.19;;;10.21;57.23
66560;BME280;53413;49.878;8.142;2024-03-08T12:23:15;99421.59;;;10.35;57.26
66560;BME280;53413;49.878;8.142;2024-03-08T12:25:42;99427.97;;;10.29;56.78
66560;BME280;53413;49.878;8.142;2024-03-08T12:28:11;99425.16;;;10.34;56.86
66560;BME280;53413;49.878;8.142;2024-03-08T12:30:48;99433.59;;;10.40;56.86
66560;BME280;53413;49.878;8.142;2024-03-08T12:33:14;99425.44;;;10.46;57.25
66560;BME280;53413;49.878;8.142;2024-03-08T12:35:40;99418.16;;;10.53;56.95
66560;BME280;53413;49.878;8.142;2024-03-08T12:38:06;99423.50;;;10.69;57.32
66560;BME280;53413;49.878;8.142;2024-03-08T12:40:33;99424.88;;;10.59;56.10
66560;BME280;53413;49.878;8.142;2024-03-08T12:43:05;99416.44;;;10.33;56.66
66560;BME280;53413;49.878;8.142;2024-03-08T12:45:31;99412.97;;;10.32;56.48
66560;BME280;53413;49.878;8.142;2024-03-08T12:47:57;99405.50;;;10.44;57.43
66560;BME280;53413;49.878;8.142;2024-03-08T12:50:24;99397.75;;;10.60;57.14
66560;BME280;53413;49.878;8.142;2024-03-08T12:52:50;99392.19;;;10.66;57.22
66560;BME280;53413;49.878;8.142;2024-03-08T12:55:18;99390.66;;;10.62;56.77
66560;BME280;53413;49.878;8.142;2024-03-08T12:57:43;99377.84;;;10.56;56.87
66560;BME280;53413;49.878;8.142;2024-03-08T13:00:10;99382.47;;;10.51;57.36
66560;BME280;53413;49.878;8.142;2024-03-08T13:02:45;99374.06;;;10.61;57.27
66560;BME280;53413;49.878;8.142;2024-03-08T13:05:10;99368.38;;;10.53;56.82